Time;durP1;ratioP1;P1;durP2;ratioP2;P2;SDS_P1;SDS_P2;PMS_P1;PMS_P2;Temp;Humidity;BMP_temperature;BMP_pressure;BME280_temperature;BME280_humidity;BME280_pressure;Samples;Min_cycle;Max_cycle;Signal;HPM_P1;HPM_P2
2022/01/12 00:02:14;;;;;;;21.40;8.18;;;2.60;99.90;;;;;;5015688;28;20022;-52
2022/01/12 00:04:40;;;;;;;16.13;7.55;;;2.60;99.90;;;;;;5015912;28;20026;-53
2022/01/12 00:07:06;;;;;;;17.52;7.55;;;2.70;99.90;;;;;;5015535;28;20022;-54
2022/01/12 00:09:31;;;;;;;21.95;8.85;;;2.80;99.90;;;;;;5015455;28;20029;-53
2022/01/12 00:12:02;;;;;;;24.70;10.27;;;2.80;99.90;;;;;;5038887;28;20032;-50
2022/01/12 00:14:27;;;;;;;17.75;7.47;;;2.70;99.90;;;;;;5038684;28;20028;-51
2022/01/12 00:16:58;;;;;;;15.13;7.07;;;2.70;99.90;;;;;;5038463;28;20027;-53
2022/01/12 00:19:26;;;;;;;17.48;7.85;;;2.70;99.90;;;;;;5038461;28;20020;-51
2022/01/12 00:21:52;;;;;;;16.55;7.72;;;2.60;99.90;;;;;;5056135;28;20075;-53
2022/01/12 00:24:18;;;;;;;15.95;7.72;;;2.50;99.90;;;;;;5038079;28;20024;-50
2022/01/12 00:33:08;;;;;;;18.33;8.15;;;2.50;99.90;;;;;;5038832;28;20024;-53
2022/01/12 00:34:57;;;;;;;16.42;7.60;;;2.50;99.90;;;;;;5055516;28;20404;-51
2022/01/12 00:37:23;;;;;;;17.20;7.65;;;2.50;99.90;;;;;;5037619;28;20025;-51
2022/01/12 00:39:48;;;;;;;18.70;7.18;;;2.40;99.90;;;;;;5037706;28;20162;-55
2022/01/12 00:42:14;;;;;;;14.23;7.07;;;2.30;99.90;;;;;;5038034;28;20028;-53
2022/01/12 00:44:44;;;;;;;15.80;7.10;;;2.20;99.90;;;;;;5038365;28;20029;-50
2022/01/12 00:47:11;;;;;;;16.00;7.82;;;2.10;99.90;;;;;;5037608;28;20027;-50
2022/01/12 00:49:37;;;;;;;13.73;7.10;;;2.10;99.90;;;;;;5037520;28;20108;-50
2022/01/12 00:52:03;;;;;;;18.98;8.23;;;2.00;99.90;;;;;;5037682;28;20057;-54
2022/01/12 00:54:29;;;;;;;18.75;7.25;;;2.10;99.90;;;;;;5037021;28;20056;-51
2022/01/12 00:56:54;;;;;;;16.25;7.18;;;2.00;99.90;;;;;;5037563;28;20067;-50
2022/01/12 00:59:20;;;;;;;19.40;8.85;;;2.00;99.90;;;;;;5037387;28;20169;-52
2022/01/12 01:01:46;;;;;;;17.92;8.85;;;2.00;99.90;;;;;;5055250;28;20051;-51
2022/01/12 01:04:11;;;;;;;16.05;7.93;;;2.00;99.90;;;;;;5038107;28;20033;-54
2022/01/12 01:06:37;;;;;;;18.13;7.90;;;1.90;99.90;;;;;;5037453;28;20032;-51
2022/01/12 01:09:05;;;;;;;14.60;7.70;;;1.90;99.90;;;;;;5036841;28;20083;-50
2022/01/12 01:11:31;;;;;;;16.73;7.40;;;1.90;99.90;;;;;;5054789;28;20028;-50
2022/01/12 01:13:59;;;;;;;15.98;6.65;;;1.80;99.90;;;;;;5036872;28;20053;-53
2022/01/12 01:16:49;;;;;;;17.50;8.02;;;1.80;99.90;;;;;;5037081;28;20028;-53
2022/01/12 01:27:48;;;;;;;16.35;7.22;;;2.10;99.90;;;;;;4993377;28;20045;-51
2022/01/12 01:30:16;;;;;;;18.90;7.50;;;2.10;99.90;;;;;;5012261;28;20032;-51
2022/01/12 01:32:43;;;;;;;17.80;7.70;;;2.10;99.90;;;;;;5036954;28;20025;-50
2022/01/12 01:35:08;;;;;;;18.75;7.85;;;2.10;99.90;;;;;;5054433;28;20098;-52
2022/01/12 01:37:34;;;;;;;20.08;9.07;;;2.10;99.90;;;;;;5036475;28;20025;-50
2022/01/12 01:40:00;;;;;;;20.08;7.35;;;2.10;99.90;;;;;;5036544;28;20017;-50
2022/01/12 01:42:40;;;;;;;13.93;6.85;;;2.20;99.90;;;;;;5036604;28;20021;-50
2022/01/12 01:53:21;;;;;;;15.93;6.88;;;2.20;99.90;;;;;;5054433;28;20067;-57
2022/01/12 01:55:49;;;;;;;16.58;6.88;;;2.20;99.90;;;;;;5053899;28;20044;-50
2022/01/12 01:58:15;;;;;;;17.70;7.53;;;2.10;99.90;;;;;;5036067;28;20021;-52
2022/01/12 02:00:41;;;;;;;38.25;8.77;;;2.00;99.90;;;;;;5053986;28;20040;-50
2022/01/12 02:03:06;;;;;;;31.95;7.07;;;1.80;99.90;;;;;;5036049;28;20025;-50
2022/01/12 02:05:32;;;;;;;16.63;6.30;;;1.60;99.90;;;;;;5036331;28;20061;-50
2022/01/12 02:07:59;;;;;;;14.25;6.35;;;1.40;99.90;;;;;;5053685;28;20025;-50
2022/01/12 02:10:43;;;;;;;16.02;6.85;;;1.60;99.90;;;;;;5053635;28;20096;-52
2022/01/12 02:13:10;;;;;;;32.20;8.65;;;1.70;99.90;;;;;;5035971;28;20116;-53
2022/01/12 02:15:36;;;;;;;13.35;6.53;;;1.70;99.90;;;;;;5053746;28;20017;-50
2022/01/12 02:37:14;;;;;;;20.02;7.57;;;2.00;99.90;;;;;;5054490;28;20110;-53
2022/01/12 02:40:18;;;;;;;14.90;7.13;;;2.00;99.90;;;;;;5036032;28;20040;-52
2022/01/12 02:42:48;;;;;;;64.40;9.20;;;2.00;99.90;;;;;;5053666;28;20031;-52
2022/01/12 02:55:51;;;;;;;12.25;6.20;;;1.40;99.90;;;;;;5053609;28;20032;-52
2022/01/12 02:58:17;;;;;;;13.85;6.57;;;1.40;99.90;;;;;;5053640;28;20025;-54
2022/01/12 03:03:35;;;;;;;18.98;7.25;;;1.60;99.90;;;;;;5028754;28;20037;-53
2022/01/12 03:06:04;;;;;;;15.85;6.95;;;1.60;99.90;;;;;;5056947;28;20029;-52
2022/01/12 03:08:36;;;;;;;22.38;6.80;;;1.70;99.90;;;;;;5039028;28;20029;-52
2022/01/12 03:11:10;;;;;;;14.15;6.78;;;1.80;99.90;;;;;;5039798;28;20115;-50
2022/01/12 03:13:36;;;;;;;18.60;6.95;;;1.80;99.90;;;;;;5039107;28;20088;-51
2022/01/12 03:16:11;;;;;;;17.30;8.00;;;1.90;99.90;;;;;;5039237;28;20025;-50
2022/01/12 03:18:37;;;;;;;27.42;14.38;;;1.90;99.90;;;;;;5039047;28;20028;-51
2022/01/12 03:21:04;;;;;;;17.35;9.88;;;1.80;99.90;;;;;;5038887;28;20025;-55
2022/01/12 03:23:30;;;;;;;13.70;6.05;;;1.80;99.90;;;;;;5057157;28;20021;-50
2022/01/12 03:25:56;;;;;;;15.77;7.00;;;1.80;99.90;;;;;;5038756;28;20040;-50
2022/01/12 03:28:21;;;;;;;14.10;6.10;;;1.80;99.90;;;;;;5038957;28;20475;-50
2022/01/12 03:30:54;;;;;;;13.05;5.82;;;1.90;99.90;;;;;;5038853;28;20021;-51
2022/01/12 03:38:40;;;;;;;19.80;5.60;;;1.80;99.90;;;;;;5056963;28;20029;-52
2022/01/12 03:41:05;;;;;;;12.65;5.40;;;1.70;99.90;;;;;;5039004;28;20018;-50
2022/01/12 03:43:31;;;;;;;13.55;5.85;;;1.50;99.90;;;;;;5038939;28;20093;-51
2022/01/12 03:45:58;;;;;;;12.57;5.53;;;1.50;99.90;;;;;;5038475;28;20028;-50
2022/01/12 03:48:23;;;;;;;13.88;6.00;;;1.70;99.90;;;;;;5038113;28;20025;-52
2022/01/12 03:50:49;;;;;;;10.93;5.97;;;1.70;99.90;;;;;;5039201;28;20031;-55
2022/01/12 03:53:15;;;;;;;11.55;5.90;;;1.70;99.90;;;;;;5055974;28;20021;-51
2022/01/12 03:55:42;;;;;;;14.60;6.38;;;1.70;99.90;;;;;;5038297;28;20025;-51
2022/01/12 03:58:10;;;;;;;11.95;5.90;;;1.80;99.90;;;;;;5038378;28;20061;-52
2022/01/12 04:00:36;;;;;;;13.93;7.03;;;1.70;99.90;;;;;;5038033;28;20116;-52
2022/01/12 04:03:05;;;;;;;15.40;5.70;;;1.70;99.90;;;;;;5038533;28;20022;-50
2022/01/12 04:08:20;;;;;;;10.25;5.40;;;1.60;99.90;;;;;;5055773;28;20021;-53
2022/01/12 04:13:55;;;;;;;11.05;4.63;;;1.80;99.90;;;;;;5016212;28;20080;-54
2022/01/12 04:16:21;;;;;;;9.20;5.32;;;1.90;99.90;;;;;;4998402;28;20022;-52
2022/01/12 04:18:46;;;;;;;11.07;4.95;;;1.70;99.90;;;;;;4999118;28;20018;-51
2022/01/12 04:21:13;;;;;;;11.20;5.05;;;1.60;99.90;;;;;;4998731;28;20026;-55
2022/01/12 04:23:40;;;;;;;7.32;4.68;;;1.60;99.90;;;;;;5016374;28;20029;-53
2022/01/12 04:26:10;;;;;;;10.75;4.95;;;1.40;99.90;;;;;;4997990;28;20049;-52
2022/01/12 04:28:39;;;;;;;8.25;4.45;;;1.60;99.90;;;;;;4998138;28;20077;-52
2022/01/12 04:31:05;;;;;;;9.73;4.93;;;1.50;99.90;;;;;;4998350;28;20049;-52
2022/01/12 04:33:31;;;;;;;14.68;6.13;;;1.60;99.90;;;;;;5015332;28;20037;-52
2022/01/12 04:35:57;;;;;;;12.57;5.38;;;1.70;99.90;;;;;;4998901;28;20026;-54
2022/01/12 04:38:27;;;;;;;11.40;5.78;;;1.80;99.90;;;;;;4997930;28;20108;-56
2022/01/12 04:40:53;;;;;;;14.07;5.25;;;1.90;99.90;;;;;;4998528;28;20026;-54
2022/01/12 04:43:21;;;;;;;11.02;4.85;;;2.10;99.90;;;;;;4998189;28;20033;-50
2022/01/12 04:50:44;;;;;;;8.57;4.75;;;2.10;99.90;;;;;;5015621;28;20014;-51
2022/01/12 04:53:11;;;;;;;12.35;5.60;;;2.10;99.90;;;;;;5014102;28;20025;-55
2022/01/12 04:55:37;;;;;;;11.50;5.80;;;2.10;99.90;;;;;;5013903;28;20032;-53
2022/01/12 04:58:04;;;;;;;13.95;6.22;;;2.20;99.90;;;;;;4998430;28;20028;-53
2022/01/12 05:00:30;;;;;;;13.85;5.82;;;1.90;99.90;;;;;;4997463;28;20029;-50
2022/01/12 05:13:40;;;;;;;15.40;6.97;;;1.70;99.90;;;;;;5014741;28;20053;-53
2022/01/12 05:16:06;;;;;;;15.15;6.10;;;1.60;99.90;;;;;;4997308;28;20025;-52
2022/01/12 05:18:33;;;;;;;20.33;7.07;;;1.70;99.90;;;;;;4997528;28;20022;-53
2022/01/12 05:20:59;;;;;;;14.10;6.75;;;1.70;99.90;;;;;;4997530;28;20026;-50
2022/01/12 05:23:25;;;;;;;14.80;6.40;;;1.80;99.90;;;;;;4996891;28;20025;-53
2022/01/12 05:25:52;;;;;;;17.55;6.07;;;1.70;99.90;;;;;;4998068;28;20072;-52
2022/01/12 05:28:19;;;;;;;12.57;5.10;;;1.80;99.90;;;;;;4997132;28;20026;-52
2022/01/12 05:30:45;;;;;;;22.80;7.72;;;1.90;99.90;;;;;;4997688;28;20082;-56
2022/01/12 05:33:12;;;;;;;16.65;7.13;;;1.80;99.90;;;;;;5014613;28;20053;-56
2022/01/12 05:35:37;;;;;;;13.95;6.30;;;1.70;99.90;;;;;;4996974;28;20025;-51
2022/01/12 05:38:05;;;;;;;16.95;6.45;;;1.70;99.90;;;;;;4996578;28;20053;-53
2022/01/12 05:40:31;;;;;;;13.13;5.35;;;1.80;99.90;;;;;;5014271;28;20026;-51
2022/01/12 05:43:01;;;;;;;10.13;5.63;;;1.90;99.90;;;;;;5014282;28;20061;-52
2022/01/12 05:45:29;;;;;;;9.48;4.80;;;1.90;99.90;;;;;;4997700;28;20026;-52
2022/01/12 05:50:22;;;;;;;8.65;4.95;;;1.90;99.90;;;;;;5014507;28;20025;-50
2022/01/12 05:52:48;;;;;;;11.25;4.65;;;1.90;99.90;;;;;;4996598;28;20018;-54
2022/01/12 05:55:14;;;;;;;10.90;5.38;;;1.90;99.90;;;;;;5013864;28;20160;-50
2022/01/12 05:57:41;;;;;;;10.75;5.65;;;1.80;99.90;;;;;;4996446;28;20025;-51
2022/01/12 06:00:12;;;;;;;17.27;7.05;;;1.70;99.90;;;;;;5014174;28;20021;-54
2022/01/12 06:02:38;;;;;;;11.05;6.45;;;1.60;99.90;;;;;;4996197;28;20111;-53
2022/01/12 06:05:04;;;;;;;16.38;7.32;;;1.50;99.90;;;;;;4996268;28;20065;-50
2022/01/12 06:07:30;;;;;;;14.88;6.38;;;1.50;99.90;;;;;;4996188;28;20117;-53
2022/01/12 06:09:56;;;;;;;12.70;6.45;;;1.70;99.90;;;;;;5013869;28;20049;-52
2022/01/12 06:12:21;;;;;;;9.95;5.78;;;1.80;99.90;;;;;;4996253;28;20026;-54
2022/01/12 06:14:47;;;;;;;9.77;5.20;;;1.80;99.90;;;;;;4995912;28;20033;-54
2022/01/12 06:17:13;;;;;;;11.55;5.60;;;1.80;99.90;;;;;;4996207;28;20052;-52
2022/01/12 06:19:39;;;;;;;10.68;5.70;;;1.90;99.90;;;;;;5013986;28;20104;-52
2022/01/12 06:22:06;;;;;;;13.35;5.70;;;2.00;99.90;;;;;;4996573;28;20022;-52
2022/01/12 06:24:32;;;;;;;10.55;5.47;;;2.00;99.90;;;;;;4996008;28;20488;-54
2022/01/12 06:26:59;;;;;;;12.00;5.55;;;2.00;99.90;;;;;;4996956;28;20061;-51
2022/01/12 06:29:40;;;;;;;11.98;6.22;;;2.10;99.90;;;;;;5013574;28;20029;-52
2022/01/12 06:32:06;;;;;;;13.93;6.32;;;2.20;99.90;;;;;;5013546;28;20058;-52
2022/01/12 06:34:33;;;;;;;13.27;5.82;;;2.20;99.90;;;;;;5015580;28;20117;-50
2022/01/12 06:36:58;;;;;;;10.40;5.43;;;2.20;99.90;;;;;;5000161;28;20018;-53
2022/01/12 06:39:25;;;;;;;12.85;5.20;;;2.10;99.90;;;;;;5017788;28;20024;-53
2022/01/12 06:41:53;;;;;;;13.95;5.47;;;2.10;99.90;;;;;;5017819;28;20022;-54
2022/01/12 06:44:20;;;;;;;13.20;5.20;;;1.90;99.90;;;;;;5017723;28;20120;-55
2022/01/12 06:46:47;;;;;;;10.95;5.75;;;1.90;99.90;;;;;;5017648;28;20037;-52
2022/01/12 06:49:15;;;;;;;13.07;5.97;;;1.80;99.90;;;;;;5000857;28;20029;-54
2022/01/12 06:51:42;;;;;;;11.43;5.40;;;1.70;99.90;;;;;;5017692;28;20192;-53
2022/01/12 06:54:08;;;;;;;14.13;6.40;;;1.70;99.90;;;;;;5017357;28;20037;-54
2022/01/12 06:56:34;;;;;;;11.20;5.10;;;1.70;99.90;;;;;;5017790;28;20022;-54
2022/01/12 06:59:00;;;;;;;12.38;5.90;;;1.80;99.90;;;;;;5017623;28;20026;-52
2022/01/12 07:01:25;;;;;;;13.32;6.03;;;1.80;99.90;;;;;;5017357;28;20084;-52
2022/01/12 07:03:51;;;;;;;14.13;6.43;;;1.80;99.90;;;;;;5017444;28;20025;-53
2022/01/12 07:06:18;;;;;;;11.07;5.38;;;1.90;99.90;;;;;;5017174;28;20026;-53
2022/01/12 07:08:44;;;;;;;13.60;6.25;;;1.90;99.90;;;;;;4999927;28;20038;-54
2022/01/12 07:11:10;;;;;;;22.73;9.23;;;1.90;99.90;;;;;;5017100;28;20033;-53
2022/01/12 07:13:35;;;;;;;12.68;6.40;;;1.80;99.90;;;;;;4999432;28;20030;-51
2022/01/12 07:16:02;;;;;;;8.52;5.32;;;1.80;99.90;;;;;;5017016;28;20028;-55
2022/01/12 07:18:29;;;;;;;13.90;7.05;;;1.80;99.90;;;;;;5016929;28;20416;-54
2022/01/12 07:20:55;;;;;;;13.77;7.50;;;2.00;99.90;;;;;;5000244;28;20022;-56
2022/01/12 07:23:21;;;;;;;13.88;6.43;;;2.00;99.90;;;;;;4999928;28;20032;-50
2022/01/12 07:25:47;;;;;;;12.73;6.03;;;2.10;99.90;;;;;;4999268;28;20112;-54
2022/01/12 07:28:13;;;;;;;14.95;6.60;;;2.10;99.90;;;;;;5017615;28;20083;-50
2022/01/12 07:30:38;;;;;;;11.82;5.97;;;2.20;99.90;;;;;;5017445;28;20037;-50
2022/01/12 07:33:04;;;;;;;11.98;6.50;;;2.30;99.90;;;;;;4999068;28;20022;-51
2022/01/12 07:35:30;;;;;;;13.45;5.95;;;2.20;99.90;;;;;;4999508;28;20033;-50
2022/01/12 07:37:55;;;;;;;11.68;5.50;;;2.30;99.90;;;;;;5016590;28;20100;-55
2022/01/12 07:40:21;;;;;;;17.30;7.80;;;2.40;99.90;;;;;;4999026;28;20026;-54
2022/01/12 07:42:47;;;;;;;13.27;6.05;;;2.40;99.90;;;;;;4999562;28;20097;-54
2022/01/12 07:45:13;;;;;;;11.32;6.10;;;2.40;99.90;;;;;;4998596;28;20033;-51
2022/01/12 07:47:38;;;;;;;14.35;6.63;;;2.40;99.90;;;;;;5016715;28;20022;-51
2022/01/12 07:50:06;;;;;;;12.85;5.72;;;2.30;99.90;;;;;;5016337;28;20053;-52
2022/01/12 07:52:32;;;;;;;12.68;5.82;;;2.30;99.90;;;;;;5016406;28;20040;-52
2022/01/12 07:54:58;;;;;;;11.45;6.00;;;2.30;99.90;;;;;;4998767;28;20026;-52
2022/01/12 07:57:24;;;;;;;12.07;6.20;;;2.30;99.90;;;;;;4999073;28;20097;-55
2022/01/12 07:59:49;;;;;;;19.27;7.28;;;2.10;99.90;;;;;;4998916;28;20030;-53
2022/01/12 08:02:16;;;;;;;22.38;8.10;;;1.90;99.90;;;;;;4999160;28;20018;-57
2022/01/12 08:04:42;;;;;;;20.52;7.28;;;2.00;99.90;;;;;;4998692;28;20084;-54
2022/01/12 08:07:10;;;;;;;14.85;6.93;;;1.90;99.90;;;;;;4998520;28;20084;-52
2022/01/12 08:09:36;;;;;;;18.60;7.50;;;1.90;99.90;;;;;;4998447;28;20026;-52
2022/01/12 08:12:14;;;;;;;15.43;6.95;;;1.80;99.90;;;;;;4998444;28;20030;-51
2022/01/12 08:14:40;;;;;;;15.70;7.68;;;1.70;99.90;;;;;;4998420;28;20028;-52
2022/01/12 08:17:06;;;;;;;13.90;7.30;;;1.60;99.90;;;;;;4998816;28;20022;-52
2022/01/12 08:19:35;;;;;;;16.15;6.80;;;1.60;99.90;;;;;;5016030;28;20067;-54
2022/01/12 08:22:01;;;;;;;16.00;7.15;;;1.70;99.90;;;;;;4998835;28;20018;-50
2022/01/12 08:24:27;;;;;;;18.98;7.35;;;1.90;99.90;;;;;;4998279;28;20026;-50
2022/01/12 08:26:53;;;;;;;13.98;5.90;;;2.00;99.90;;;;;;5015793;28;20029;-54
2022/01/12 08:29:18;;;;;;;15.45;6.95;;;2.40;99.90;;;;;;4997947;28;20425;-55
2022/01/12 08:31:45;;;;;;;13.98;5.95;;;3.40;99.90;;;;;;5015921;28;20060;-56
2022/01/12 08:34:11;;;;;;;15.20;6.55;;;4.10;99.90;;;;;;4997903;28;20169;-53
2022/01/12 08:36:41;;;;;;;17.63;6.75;;;4.20;99.90;;;;;;4999117;28;20018;-53
2022/01/12 08:39:08;;;;;;;16.77;6.90;;;4.10;99.90;;;;;;5015685;28;20049;-52
2022/01/12 08:41:35;;;;;;;11.93;6.03;;;4.60;99.90;;;;;;5015716;28;20026;-55
2022/01/12 08:44:01;;;;;;;15.23;6.10;;;5.50;99.90;;;;;;5015333;28;20041;-57
2022/01/12 08:46:28;;;;;;;10.52;5.28;;;6.60;99.90;;;;;;5015465;28;20021;-54
2022/01/12 08:48:54;;;;;;;15.75;7.60;;;7.60;99.90;;;;;;5015737;28;20058;-52
2022/01/12 08:51:19;;;;;;;12.32;7.22;;;7.90;99.90;;;;;;5015419;28;20112;-55
2022/01/12 08:53:45;;;;;;;13.93;7.28;;;7.70;99.90;;;;;;4998586;28;20121;-51
2022/01/12 08:56:11;;;;;;;15.18;7.13;;;7.60;99.90;;;;;;5014910;28;20473;-51
2022/01/12 08:58:37;;;;;;;11.25;6.32;;;7.70;99.90;;;;;;4998265;28;20072;-53
2022/01/12 09:01:04;;;;;;;11.27;6.38;;;7.80;99.90;;;;;;4997626;28;20029;-52
2022/01/12 09:03:31;;;;;;;12.48;7.30;;;8.40;99.90;;;;;;5015110;28;20022;-53
2022/01/12 09:05:57;;;;;;;12.73;7.40;;;9.20;99.90;;;;;;4997462;28;20037;-52
2022/01/12 09:08:23;;;;;;;10.25;5.93;;;9.60;99.90;;;;;;4997329;28;20038;-50
2022/01/12 09:10:49;;;;;;;10.10;6.47;;;9.30;99.90;;;;;;4997159;28;20026;-50
2022/01/12 09:13:18;;;;;;;10.85;6.53;;;8.50;99.90;;;;;;4997209;28;20079;-48
2022/01/12 09:15:51;;;;;;;11.15;6.97;;;7.90;99.90;;;;;;5014510;28;20057;-52
2022/01/12 09:18:18;;;;;;;9.38;6.13;;;7.00;99.90;;;;;;5014649;28;20075;-54
2022/01/12 09:20:44;;;;;;;14.75;6.82;;;6.70;99.90;;;;;;5014467;28;20032;-52
2022/01/12 09:23:10;;;;;;;11.23;5.93;;;6.20;99.90;;;;;;4996803;28;20022;-55
2022/01/12 09:25:39;;;;;;;12.05;6.35;;;6.00;99.90;;;;;;4997116;28;20025;-53
2022/01/12 09:28:08;;;;;;;15.50;6.72;;;5.70;99.90;;;;;;4996895;28;20021;-53
2022/01/12 09:30:34;;;;;;;15.10;7.10;;;5.70;99.90;;;;;;4996611;28;20085;-54
2022/01/12 09:33:00;;;;;;;13.07;6.43;;;5.70;99.90;;;;;;5014124;28;20484;-54
2022/01/12 09:35:27;;;;;;;16.00;7.60;;;5.50;99.90;;;;;;5014000;28;20030;-52
2022/01/12 09:37:52;;;;;;;11.45;5.88;;;5.50;99.90;;;;;;4996692;28;20025;-52
2022/01/12 09:40:18;;;;;;;10.85;6.03;;;5.50;99.90;;;;;;5014040;28;20053;-53
2022/01/12 09:42:47;;;;;;;12.52;6.65;;;5.50;99.90;;;;;;5014115;28;20022;-54
2022/01/12 09:45:16;;;;;;;18.52;7.20;;;5.50;99.90;;;;;;4998034;28;20480;-57
2022/01/12 09:47:43;;;;;;;14.23;6.20;;;5.50;99.90;;;;;;4996191;28;20116;-55
2022/01/12 09:50:12;;;;;;;11.80;6.28;;;5.40;99.90;;;;;;5014312;28;20030;-51
2022/01/12 09:52:38;;;;;;;13.65;6.07;;;5.50;99.90;;;;;;5013872;28;20030;-55
2022/01/12 09:55:04;;;;;;;13.73;7.35;;;5.50;99.90;;;;;;5012546;28;20049;-52
2022/01/12 09:57:30;;;;;;;12.07;6.40;;;5.50;99.90;;;;;;4996201;28;20021;-56
2022/01/12 09:59:56;;;;;;;13.60;6.25;;;5.30;99.90;;;;;;5012534;28;20018;-54
2022/01/12 10:02:22;;;;;;;12.63;7.05;;;5.10;99.90;;;;;;4996197;28;20037;-54
2022/01/12 10:04:58;;;;;;;15.23;6.53;;;5.30;99.90;;;;;;5013744;28;20030;-53
2022/01/12 10:07:25;;;;;;;11.65;7.18;;;5.50;99.90;;;;;;5012907;28;20022;-56
2022/01/12 10:09:56;;;;;;;12.90;7.13;;;5.50;99.90;;;;;;4995732;28;20051;-53
2022/01/12 10:12:27;;;;;;;15.75;7.47;;;5.50;99.90;;;;;;4996612;28;20029;-53
2022/01/12 10:14:55;;;;;;;13.00;6.60;;;5.60;99.90;;;;;;4996019;28;20032;-54
2022/01/12 10:17:34;;;;;;;12.80;7.38;;;5.80;99.90;;;;;;4996384;28;20019;-52
2022/01/12 10:20:10;;;;;;;13.95;7.03;;;6.00;99.90;;;;;;5013542;28;20025;-56
2022/01/12 10:22:57;;;;;;;14.35;7.32;;;6.30;99.90;;;;;;4996179;28;20026;-56
2022/01/12 10:25:24;;;;;;;13.35;6.45;;;6.30;99.90;;;;;;5011840;28;20065;-55
2022/01/12 10:27:50;;;;;;;15.98;7.47;;;6.60;99.90;;;;;;5013687;28;20034;-54
2022/01/12 10:30:19;;;;;;;14.35;7.40;;;6.50;99.90;;;;;;4995863;28;20026;-51
2022/01/12 10:32:44;;;;;;;11.35;6.57;;;6.20;99.90;;;;;;4996176;28;20080;-53
2022/01/12 10:35:10;;;;;;;14.98;6.85;;;6.20;99.90;;;;;;4995893;28;20030;-54
2022/01/12 10:37:36;;;;;;;17.60;9.32;;;6.00;99.90;;;;;;5013290;28;20049;-51
2022/01/12 10:40:03;;;;;;;13.85;6.93;;;6.10;99.90;;;;;;4995667;28;20018;-57
2022/01/12 10:42:29;;;;;;;12.13;6.78;;;6.10;99.90;;;;;;4995577;28;20026;-56
2022/01/12 10:45:04;;;;;;;12.30;6.40;;;6.00;99.90;;;;;;5013352;28;20105;-54
2022/01/12 10:47:32;;;;;;;17.80;6.93;;;6.10;99.90;;;;;;5013310;28;20028;-53
2022/01/12 10:50:10;;;;;;;19.20;6.88;;;6.10;99.90;;;;;;4995572;28;20029;-54
2022/01/12 10:52:39;;;;;;;13.38;6.80;;;6.20;99.90;;;;;;4995765;28;20117;-54
2022/01/12 10:55:08;;;;;;;16.42;6.15;;;6.30;99.90;;;;;;5013167;28;20022;-55
2022/01/12 10:57:38;;;;;;;12.32;6.88;;;6.50;99.90;;;;;;5013141;28;20076;-54
2022/01/12 11:00:28;;;;;;;14.85;6.65;;;6.50;99.90;;;;;;4996000;28;20056;-54
2022/01/12 11:03:21;;;;;;;13.32;6.03;;;6.50;99.90;;;;;;5013427;28;20022;-53
2022/01/12 11:05:52;;;;;;;11.88;6.80;;;6.70;99.90;;;;;;5013128;28;20068;-52
2022/01/12 11:08:27;;;;;;;16.13;6.40;;;6.60;99.90;;;;;;5013077;28;20044;-51
2022/01/12 11:11:02;;;;;;;14.95;6.15;;;6.90;99.90;;;;;;5013201;28;20026;-52
2022/01/12 11:13:37;;;;;;;11.43;6.03;;;7.10;99.90;;;;;;5011836;28;20109;-55
2022/01/12 11:16:10;;;;;;;10.65;6.20;;;7.20;99.90;;;;;;4995418;28;20030;-52
2022/01/12 11:18:55;;;;;;;13.65;7.43;;;7.10;99.90;;;;;;5013062;28;20029;-56
2022/01/12 11:21:27;;;;;;;13.82;6.05;;;7.00;99.90;;;;;;5016044;28;20026;-55
2022/01/12 11:24:10;;;;;;;9.57;5.78;;;7.10;99.90;;;;;;5016610;28;20022;-52
2022/01/12 11:26:51;;;;;;;13.00;6.43;;;7.00;99.90;;;;;;4999271;28;20101;-55
2022/01/12 11:29:37;;;;;;;9.98;5.90;;;7.00;99.90;;;;;;5016390;28;20109;-55
2022/01/12 11:32:15;;;;;;;13.25;5.88;;;7.10;99.90;;;;;;5016547;28;20044;-54
2022/01/12 11:34:43;;;;;;;16.85;6.00;;;7.30;99.90;;;;;;5016634;28;20026;-54
2022/01/12 11:37:21;;;;;;;11.90;6.38;;;7.40;99.90;;;;;;4998843;28;20045;-54
2022/01/12 11:39:52;;;;;;;13.85;5.60;;;7.50;99.90;;;;;;4998792;28;20053;-54
2022/01/12 11:42:23;;;;;;;8.43;5.20;;;7.40;99.90;;;;;;4999075;28;20151;-52
2022/01/12 11:44:58;;;;;;;;;;;7.50;99.90;;;;;;4998426;28;20070;-54
2022/01/12 11:47:32;;;;;;;8.93;5.28;;;7.50;99.90;;;;;;5016252;28;19910;-50
2022/01/12 11:50:12;;;;;;;9.07;5.82;;;7.40;99.90;;;;;;5016414;28;20026;-52
2022/01/12 11:52:46;;;;;;;14.15;6.18;;;7.20;99.90;;;;;;4998486;28;20401;-51
2022/01/12 11:55:18;;;;;;;14.18;6.28;;;7.30;99.90;;;;;;5016029;28;20122;-55
2022/01/12 11:58:03;;;;;;;14.48;6.40;;;7.50;99.90;;;;;;4998473;28;20144;-53
2022/01/12 12:00:41;;;;;;;12.10;7.05;;;7.50;99.90;;;;;;5016137;28;20022;-55
2022/01/12 12:03:19;;;;;;;15.60;7.47;;;7.60;99.90;;;;;;5015968;28;20018;-55
2022/01/12 12:06:00;;;;;;;10.65;5.95;;;7.70;99.90;;;;;;5015992;28;20029;-51
2022/01/12 12:08:36;;;;;;;12.10;6.23;;;8.10;99.90;;;;;;5015616;28;20076;-51
2022/01/12 12:11:14;;;;;;;15.18;7.18;;;8.00;99.90;;;;;;5014858;28;20133;-55
2022/01/12 12:13:54;;;;;;;10.05;5.97;;;7.90;99.90;;;;;;5015825;28;20032;-55
2022/01/12 12:16:31;;;;;;;14.05;5.68;;;8.00;99.90;;;;;;5015764;28;20022;-53
2022/01/12 12:19:09;;;;;;;11.40;5.22;;;8.10;99.90;;;;;;5015573;28;20036;-52
2022/01/12 12:21:41;;;;;;;13.95;7.40;;;8.20;99.90;;;;;;4998028;28;20439;-55
2022/01/12 12:24:22;;;;;;;8.85;5.57;;;8.30;99.90;;;;;;4998109;28;20045;-53
2022/01/12 12:26:54;;;;;;;10.98;6.10;;;8.30;99.90;;;;;;5015695;28;20071;-53
2022/01/12 12:29:31;;;;;;;13.75;6.97;;;8.10;99.90;;;;;;5015533;28;20484;-53
2022/01/12 12:32:05;;;;;;;12.18;6.25;;;8.20;99.90;;;;;;4997097;28;20037;-53
2022/01/12 12:34:36;;;;;;;13.57;7.13;;;8.20;99.90;;;;;;5015356;28;20026;-55
2022/01/12 12:37:35;;;;;;;11.38;6.25;;;8.30;99.90;;;;;;5014423;28;20030;-54
2022/01/12 12:40:15;;;;;;;11.70;6.97;;;8.20;99.90;;;;;;5013964;28;20089;-52
2022/01/12 12:42:40;;;;;;;13.43;6.88;;;8.10;99.90;;;;;;4997396;28;20033;-52
2022/01/12 12:45:21;;;;;;;14.85;7.07;;;8.10;99.90;;;;;;4997019;28;20037;-55
2022/01/12 12:47:54;;;;;;;8.05;5.57;;;8.20;99.90;;;;;;4998107;28;20061;-51
2022/01/12 12:50:34;;;;;;;11.15;6.53;;;8.10;99.90;;;;;;4997483;28;20029;-50
2022/01/12 12:53:13;;;;;;;10.38;6.22;;;8.00;99.90;;;;;;4997477;28;20026;-54
2022/01/12 12:55:48;;;;;;;10.48;5.50;;;8.00;99.90;;;;;;4997223;28;20060;-54
2022/01/12 12:58:18;;;;;;;12.98;6.22;;;8.10;99.90;;;;;;4997639;28;20033;-52
2022/01/12 13:01:08;;;;;;;10.55;6.10;;;8.10;99.90;;;;;;4997257;28;20025;-53
2022/01/12 13:03:51;;;;;;;16.20;7.80;;;8.10;99.90;;;;;;4997042;28;20055;-54
2022/01/12 13:06:32;;;;;;;11.75;6.63;;;8.10;99.90;;;;;;5014840;28;20026;-54
2022/01/12 13:09:13;;;;;;;11.23;7.07;;;8.00;99.90;;;;;;5013343;28;20434;-55
2022/01/12 13:11:46;;;;;;;10.68;6.25;;;8.10;99.90;;;;;;5014638;28;20300;-57
2022/01/12 13:14:21;;;;;;;12.18;6.25;;;8.30;99.90;;;;;;5014580;28;20053;-53
2022/01/12 13:17:00;;;;;;;11.88;6.72;;;8.10;99.90;;;;;;5014472;28;20097;-56
2022/01/12 13:22:46;;;;;;;12.15;6.80;;;7.80;99.90;;;;;;5014609;28;20097;-54
2022/01/12 13:25:15;;;;;;;12.32;7.20;;;7.80;99.90;;;;;;4996357;28;20030;-55
2022/01/12 13:27:42;;;;;;;12.25;6.75;;;7.50;99.90;;;;;;5014457;28;20477;-54
2022/01/12 13:33:40;;;;;;;16.60;7.43;;;7.80;99.90;;;;;;5014133;28;20029;-52
2022/01/12 13:36:15;;;;;;;21.58;6.47;;;7.70;99.90;;;;;;5012957;28;20030;-52
2022/01/12 13:38:41;;;;;;;15.65;6.72;;;7.50;99.90;;;;;;5014571;28;20026;-52
2022/01/12 13:41:13;;;;;;;11.38;6.03;;;7.40;99.90;;;;;;5033778;28;20021;-52
2022/01/12 13:43:40;;;;;;;11.15;6.95;;;7.30;99.90;;;;;;5034079;28;20045;-53
2022/01/12 13:46:16;;;;;;;10.77;5.93;;;7.30;99.90;;;;;;5033696;28;20021;-53
2022/01/12 13:49:07;;;;;;;13.93;6.15;;;7.30;99.90;;;;;;5015868;28;20022;-55
2022/01/12 13:51:37;;;;;;;15.80;7.93;;;7.20;99.90;;;;;;5016022;28;20072;-54
2022/01/12 13:54:14;;;;;;;10.55;6.40;;;7.20;99.90;;;;;;5033846;28;20109;-56
2022/01/12 13:56:44;;;;;;;24.63;13.77;;;7.30;99.90;;;;;;5033690;28;20021;-52
2022/01/12 13:59:27;;;;;;;77.95;36.70;;;7.20;99.90;;;;;;5015787;28;20117;-52
2022/01/12 14:02:00;;;;;;;97.20;48.53;;;7.20;99.90;;;;;;5033943;28;20021;-55
2022/01/12 14:04:45;;;;;;;27.13;14.57;;;7.00;99.90;;;;;;5033556;28;20052;-55
2022/01/12 14:07:29;;;;;;;15.43;8.30;;;6.90;99.90;;;;;;5033467;28;20026;-53
2022/01/12 14:10:06;;;;;;;15.95;6.90;;;6.90;99.90;;;;;;5033353;28;20031;-54
2022/01/12 14:12:37;;;;;;;14.00;7.03;;;7.00;99.90;;;;;;5033623;28;20100;-54
2022/01/12 14:15:12;;;;;;;16.67;9.55;;;7.10;99.90;;;;;;5016002;28;20025;-55
2022/01/12 14:17:48;;;;;;;28.92;14.70;;;7.00;99.90;;;;;;5015984;28;20022;-55
2022/01/12 14:20:38;;;;;;;19.80;11.35;;;7.00;99.90;;;;;;5033104;28;20068;-54
2022/01/12 14:23:27;;;;;;;12.60;8.02;;;6.80;99.90;;;;;;5015621;28;20022;-51
2022/01/12 14:25:54;;;;;;;19.35;10.07;;;6.80;99.90;;;;;;5015919;28;20029;-54
2022/01/12 14:28:31;;;;;;;16.50;8.68;;;6.80;99.90;;;;;;5015930;28;20026;-53
2022/01/12 14:30:57;;;;;;;16.48;8.88;;;6.80;99.90;;;;;;5015486;28;20091;-51
2022/01/12 14:33:23;;;;;;;28.88;13.32;;;6.80;99.90;;;;;;5015357;28;20487;-55